Time;durP1;ratioP1;P1;durP2;ratioP2;P2;SDS_P1;SDS_P2;PMS_P1;PMS_P2;Temp;Humidity;BMP_temperature;BMP_pressure;BME280_temperature;BME280_humidity;BME280_pressure;Samples;Min_cycle;Max_cycle;Signal;HPM_P1;HPM_P2
2021/01/31 00:00:44;;;;;;;53.30;29.42;;;;;;;2.30;93.99;94650.91;5018798;28;20044;-73
2021/01/31 00:03:16;;;;;;;50.00;29.77;;;;;;;2.27;94.20;94661.66;5025542;28;20058;-74
2021/01/31 00:05:43;;;;;;;124.53;59.10;;;;;;;2.23;94.16;94667.25;5024771;28;20406;-73
2021/01/31 00:08:12;;;;;;;195.48;89.45;;;;;;;2.24;94.32;94670.63;5024496;28;20041;-74
2021/01/31 00:10:39;;;;;;;47.78;24.27;;;;;;;2.22;94.42;94668.25;5019481;28;20052;-73
2021/01/31 00:13:06;;;;;;;65.28;35.17;;;;;;;2.18;94.26;94674.06;5019575;28;20402;-73
2021/01/31 00:15:39;;;;;;;59.20;31.52;;;;;;;2.15;94.20;94671.91;5027501;28;20490;-73
2021/01/31 00:18:07;;;;;;;50.45;31.23;;;;;;;2.11;94.18;94661.16;5026403;28;20037;-73
2021/01/31 00:20:35;;;;;;;39.45;24.80;;;;;;;2.06;94.26;94668.78;5021890;28;20053;-73
2021/01/31 00:23:03;;;;;;;25.17;16.48;;;;;;;2.02;94.54;94672.78;5024727;28;20042;-73
2021/01/31 00:25:30;;;;;;;27.98;16.63;;;;;;;1.98;94.28;94674.97;5025066;28;20034;-73
2021/01/31 00:27:56;;;;;;;22.02;14.63;;;;;;;1.94;94.24;94668.63;5027706;28;20049;-73
2021/01/31 00:30:30;;;;;;;21.02;14.73;;;;;;;1.92;94.40;94675.78;5026236;28;20037;-73
2021/01/31 00:32:57;;;;;;;27.92;17.40;;;;;;;1.89;94.35;94675.41;5020677;28;20038;-73
2021/01/31 00:35:25;;;;;;;45.78;28.90;;;;;;;1.85;94.50;94680.22;5015184;28;20057;-73
2021/01/31 00:37:52;;;;;;;33.00;19.38;;;;;;;1.85;94.45;94682.00;5028819;28;20053;-74
2021/01/31 00:40:19;;;;;;;38.10;22.83;;;;;;;1.82;94.51;94676.25;5021783;28;20064;-73
2021/01/31 00:42:45;;;;;;;31.63;18.10;;;;;;;1.77;94.50;94676.06;5023059;28;20056;-73
2021/01/31 00:45:16;;;;;;;34.85;19.92;;;;;;;1.79;94.75;94691.38;5018173;28;20062;-73
2021/01/31 00:47:42;;;;;;;26.42;15.65;;;;;;;1.80;94.70;94691.16;5021454;28;20050;-74
2021/01/31 00:50:14;;;;;;;20.58;12.27;;;;;;;1.80;94.36;94693.75;5024000;28;20029;-73
2021/01/31 00:52:40;;;;;;;25.83;16.30;;;;;;;1.78;94.47;94700.91;5027665;28;20049;-73
2021/01/31 00:55:07;;;;;;;37.75;23.48;;;;;;;1.74;94.31;94698.94;5029509;28;20042;-73
2021/01/31 00:57:33;;;;;;;35.65;21.50;;;;;;;1.73;94.50;94703.31;5025069;28;20052;-73
2021/01/31 00:59:59;;;;;;;31.30;19.90;;;;;;;1.73;94.56;94689.63;5027423;28;20050;-74
2021/01/31 01:02:26;;;;;;;20.17;12.88;;;;;;;1.71;94.30;94704.53;5027188;28;20052;-73
2021/01/31 01:04:52;;;;;;;39.78;22.58;;;;;;;1.70;94.60;94703.75;5021292;28;20046;-74
2021/01/31 01:07:18;;;;;;;23.05;14.57;;;;;;;1.70;94.48;94700.34;5024976;28;20474;-73
2021/01/31 01:09:46;;;;;;;41.33;23.60;;;;;;;1.69;94.41;94707.31;5027483;28;20038;-74
2021/01/31 01:12:12;;;;;;;29.83;16.75;;;;;;;1.68;94.51;94704.94;5024597;28;20409;-74
2021/01/31 01:14:39;;;;;;;41.53;23.90;;;;;;;1.67;94.49;94711.09;5020589;28;20049;-73
2021/01/31 01:17:06;;;;;;;52.20;24.95;;;;;;;1.69;94.88;94706.53;5031689;28;20041;-73
2021/01/31 01:19:32;;;;;;;97.07;39.08;;;;;;;1.73;94.72;94710.28;5027554;28;20057;-74
2021/01/31 01:21:58;;;;;;;278.90;87.60;;;;;;;1.70;94.53;94708.91;5023943;28;20037;-74
2021/01/31 01:24:25;;;;;;;149.77;50.83;;;;;;;1.69;94.61;94707.31;5025375;28;20401;-73
2021/01/31 01:26:52;;;;;;;198.48;86.20;;;;;;;1.70;94.67;94708.91;5024902;28;20481;-74
2021/01/31 01:29:18;;;;;;;73.65;48.80;;;;;;;1.75;94.78;94706.50;5025545;28;20053;-74
2021/01/31 01:31:44;;;;;;;68.53;44.22;;;;;;;1.75;94.54;94709.06;5024283;28;20073;-74
2021/01/31 01:34:11;;;;;;;28.98;19.45;;;;;;;1.77;94.76;94709.66;5025247;28;20042;-73
2021/01/31 01:36:37;;;;;;;31.95;21.42;;;;;;;1.79;94.80;94697.34;5025483;28;20044;-73
2021/01/31 01:39:04;;;;;;;31.80;21.92;;;;;;;1.81;94.63;94702.31;5022277;28;20050;-74
2021/01/31 01:41:45;;;;;;;21.75;14.60;;;;;;;1.80;94.28;94704.06;5023003;28;20053;-73
2021/01/31 01:44:12;;;;;;;12.57;9.45;;;;;;;1.78;94.58;94703.50;5027897;28;20029;-73
2021/01/31 01:46:43;;;;;;;14.55;9.43;;;;;;;1.82;94.32;94699.50;5027674;28;20401;-74
2021/01/31 01:49:18;;;;;;;13.73;9.63;;;;;;;1.84;94.59;94709.63;5027059;28;20048;-73
2021/01/31 01:52:10;;;;;;;11.88;8.70;;;;;;;1.87;94.33;94713.59;5024270;28;20042;-73
2021/01/31 01:54:42;;;;;;;13.43;9.13;;;;;;;1.83;94.46;94714.03;5024991;28;20042;-73
2021/01/31 01:57:20;;;;;;;12.63;8.75;;;;;;;1.85;94.41;94713.00;5030192;28;20037;-73
2021/01/31 01:59:48;;;;;;;12.52;7.70;;;;;;;1.85;94.55;94713.00;5028142;28;20041;-73
2021/01/31 02:02:17;;;;;;;12.68;8.27;;;;;;;1.85;94.40;94716.41;5028226;28;20048;-73
2021/01/31 02:04:44;;;;;;;11.85;8.15;;;;;;;1.84;94.14;94709.63;5021416;28;20470;-73
2021/01/31 02:07:11;;;;;;;12.00;8.82;;;;;;;1.80;94.32;94719.59;5029314;28;20038;-73
2021/01/31 02:09:38;;;;;;;13.15;8.85;;;;;;;1.77;94.13;94719.22;5028946;28;20049;-73
2021/01/31 02:12:06;;;;;;;11.70;8.95;;;;;;;1.77;94.40;94719.22;5021194;28;20049;-74
2021/01/31 02:14:35;;;;;;;13.60;9.20;;;;;;;1.76;94.51;94730.53;5028777;28;20049;-73
2021/01/31 02:17:26;;;;;;;15.07;9.02;;;;;;;1.75;94.58;94724.59;5027142;28;20049;-73
2021/01/31 02:20:48;;;;;;;14.57;9.18;;;;;;;1.75;94.65;94729.75;5019456;28;20479;-73
2021/01/31 02:23:38;;;;;;;12.80;9.00;;;;;;;1.73;94.48;94713.66;4970429;28;20050;-73
2021/01/31 02:26:13;;;;;;;14.90;9.60;;;;;;;1.70;94.61;94724.41;5023756;28;20048;-73
2021/01/31 02:29:33;;;;;;;13.55;9.38;;;;;;;1.70;94.59;94719.25;5023520;28;20046;-73
2021/01/31 02:32:26;;;;;;;14.30;9.65;;;;;;;1.68;94.76;94721.25;5002513;28;20526;-73
2021/01/31 02:35:06;;;;;;;15.38;10.30;;;;;;;1.67;94.86;94724.03;5026500;28;20052;-73
2021/01/31 02:37:41;;;;;;;15.85;10.30;;;;;;;1.71;94.80;94730.38;5025090;28;20033;-74
2021/01/31 02:40:25;;;;;;;18.20;11.43;;;;;;;1.71;94.55;94733.75;5022511;28;20049;-73
2021/01/31 02:43:10;;;;;;;16.73;10.50;;;;;;;1.72;94.73;94735.34;5021251;28;20033;-74
2021/01/31 02:45:44;;;;;;;19.00;11.25;;;;;;;1.69;94.42;94733.16;5023390;28;20284;-73
2021/01/31 02:48:17;;;;;;;15.68;10.60;;;;;;;1.69;94.55;94734.94;5026532;28;20504;-73
2021/01/31 02:51:13;;;;;;;18.20;11.48;;;;;;;1.70;94.69;94739.91;5020095;28;20042;-73
2021/01/31 02:53:49;;;;;;;18.02;11.63;;;;;;;1.69;94.72;94733.16;5022694;28;20478;-73
2021/01/31 02:56:23;;;;;;;20.27;12.13;;;;;;;1.71;94.55;94735.53;5032250;28;20045;-73
2021/01/31 02:59:02;;;;;;;19.35;11.50;;;;;;;1.69;94.56;94742.69;5022188;28;20056;-73
2021/01/31 03:01:38;;;;;;;21.15;13.00;;;;;;;1.67;94.31;94739.53;5020269;28;20054;-73
2021/01/31 03:04:09;;;;;;;20.10;12.32;;;;;;;1.61;94.52;94741.91;5026781;28;20482;-73
2021/01/31 03:06:42;;;;;;;19.17;12.00;;;;;;;1.59;94.53;94753.47;5028545;28;20033;-73
2021/01/31 03:09:15;;;;;;;21.58;12.45;;;;;;;1.58;94.82;94751.88;5015007;28;20049;-73
2021/01/31 03:11:49;;;;;;;22.70;13.88;;;;;;;1.56;94.71;94754.66;5025136;28;20049;-74
2021/01/31 03:14:19;;;;;;;20.55;12.38;;;;;;;1.56;94.80;94761.63;5018814;28;20033;-73
2021/01/31 03:16:53;;;;;;;23.50;13.23;;;;;;;1.56;94.89;94753.88;5025303;28;20038;-74
2021/01/31 03:19:31;;;;;;;25.60;13.85;;;;;;;1.58;94.93;94757.03;5007828;28;20041;-73
2021/01/31 03:22:02;;;;;;;22.73;13.63;;;;;;;1.57;95.00;94758.03;5025900;28;20046;-73
2021/01/31 03:25:01;;;;;;;24.38;14.23;;;;;;;1.57;94.90;94763.19;5019764;28;20041;-74
2021/01/31 03:27:35;;;;;;;22.52;14.50;;;;;;;1.55;94.48;94765.97;5020417;28;20044;-73
2021/01/31 03:30:01;;;;;;;24.30;14.45;;;;;;;1.53;94.60;94767.19;5023463;28;20050;-74
2021/01/31 03:32:33;;;;;;;22.02;12.50;;;;;;;1.50;94.53;94773.56;5027243;28;20478;-73
2021/01/31 03:35:04;;;;;;;19.63;11.48;;;;;;;1.51;94.66;94777.75;5025333;28;20054;-74
2021/01/31 03:37:46;;;;;;;22.42;13.45;;;;;;;1.49;94.61;94771.16;5020936;28;20045;-73
2021/01/31 03:40:15;;;;;;;20.85;12.23;;;;;;;1.45;94.52;94773.38;5019246;28;20414;-74
2021/01/31 03:42:43;;;;;;;18.27;11.20;;;;;;;1.42;94.55;94778.94;5025118;28;20073;-73
2021/01/31 03:45:12;;;;;;;20.77;11.90;;;;;;;1.44;94.51;94769.19;5024052;28;20406;-73
2021/01/31 03:47:55;;;;;;;21.40;12.10;;;;;;;1.42;94.55;94774.56;5020401;28;20052;-73
2021/01/31 03:50:21;;;;;;;23.67;13.07;;;;;;;1.41;94.62;94780.72;5020915;28;20483;-74
2021/01/31 03:52:47;;;;;;;21.33;11.70;;;;;;;1.41;94.62;94777.34;5027501;28;20037;-73
2021/01/31 03:55:14;;;;;;;22.02;13.02;;;;;;;1.48;94.91;94779.91;5019767;28;20054;-73
2021/01/31 03:57:51;;;;;;;21.10;11.88;;;;;;;1.51;94.85;94782.91;5023386;28;20067;-73
2021/01/31 04:00:26;;;;;;;22.30;12.23;;;;;;;1.52;94.60;94774.13;5018495;28;20057;-73
2021/01/31 04:03:01;;;;;;;22.52;12.60;;;;;;;1.56;94.61;94769.38;5027106;28;20050;-73
2021/01/31 04:05:31;;;;;;;23.05;12.75;;;;;;;1.59;94.58;94785.25;5014643;28;20042;-73
2021/01/31 04:08:02;;;;;;;21.92;12.45;;;;;;;1.62;94.65;94776.31;5030571;28;20423;-74
2021/01/31 04:10:29;;;;;;;23.35;13.15;;;;;;;1.63;94.53;94785.63;5023177;28;20044;-74
2021/01/31 04:12:58;;;;;;;21.77;12.57;;;;;;;1.63;94.44;94783.84;5022846;28;20049;-73
2021/01/31 04:15:41;;;;;;;21.23;12.68;;;;;;;1.66;94.45;94787.84;5028759;28;20049;-73
2021/01/31 04:18:08;;;;;;;22.05;12.63;;;;;;;1.67;94.49;94781.66;5011049;28;20049;-73
2021/01/31 04:20:35;;;;;;;26.30;14.00;;;;;;;1.70;94.46;94783.03;5019830;28;20493;-73
2021/01/31 04:23:02;;;;;;;30.17;14.48;;;;;;;1.70;94.39;94791.59;5018018;28;20034;-73
2021/01/31 04:25:29;;;;;;;23.85;13.57;;;;;;;1.67;94.41;94781.66;5029934;28;20471;-74
2021/01/31 04:27:56;;;;;;;26.52;14.45;;;;;;;1.67;94.26;94778.28;5024414;28;20462;-73
2021/01/31 04:30:23;;;;;;;26.90;14.93;;;;;;;1.63;94.28;94788.22;5022467;28;20482;-73
2021/01/31 04:32:49;;;;;;;29.80;14.57;;;;;;;1.61;94.47;94796.16;5024744;28;20056;-73
2021/01/31 04:35:17;;;;;;;28.40;14.82;;;;;;;1.57;94.54;94797.56;5024974;28;20053;-73
2021/01/31 04:37:43;;;;;;;29.13;15.57;;;;;;;1.53;94.41;94798.97;5024990;28;20041;-74
2021/01/31 04:40:12;;;;;;;34.40;17.58;;;;;;;1.49;94.67;94797.81;5023670;28;20038;-73
2021/01/31 04:42:39;;;;;;;29.55;16.02;;;;;;;1.44;94.75;94797.59;5018375;28;20044;-73
2021/01/31 04:45:08;;;;;;;32.28;16.92;;;;;;;1.42;94.99;94797.78;5020249;28;20393;-73
2021/01/31 04:47:45;;;;;;;32.92;18.08;;;;;;;1.38;95.03;94794.03;5017271;28;20056;-74
2021/01/31 04:50:31;;;;;;;35.00;18.20;;;;;;;1.38;95.20;94795.81;5023753;28;20042;-73
2021/01/31 04:53:16;;;;;;;32.78;17.60;;;;;;;1.36;95.11;94796.00;5021230;28;20041;-73
2021/01/31 04:56:11;;;;;;;30.38;16.60;;;;;;;1.33;95.03;94796.44;5008359;28;20049;-73
2021/01/31 04:58:46;;;;;;;31.13;16.30;;;;;;;1.29;94.92;94797.81;5020626;28;20048;-73
2021/01/31 05:01:25;;;;;;;29.38;15.68;;;;;;;1.30;95.27;94802.00;5020641;28;20033;-73
2021/01/31 05:03:57;;;;;;;28.73;16.63;;;;;;;1.32;95.26;94802.56;5020160;28;20533;-74
2021/01/31 05:06:25;;;;;;;30.33;17.23;;;;;;;1.33;95.04;94799.00;5020756;28;20048;-73
2021/01/31 05:08:51;;;;;;;29.25;15.18;;;;;;;1.33;94.87;94801.59;5022910;28;20044;-74
2021/01/31 05:11:25;;;;;;;34.20;16.38;;;;;;;1.29;94.39;94799.63;5025980;28;20367;-73
2021/01/31 05:14:01;;;;;;;29.98;16.17;;;;;;;1.28;94.75;94805.75;5012161;28;20497;-73
2021/01/31 05:16:27;;;;;;;34.20;17.58;;;;;;;1.23;94.71;94808.16;5021734;28;20398;-73
2021/01/31 05:18:58;;;;;;;30.38;16.80;;;;;;;1.25;95.18;94809.53;5020579;28;20054;-73
2021/01/31 05:21:29;;;;;;;32.13;17.23;;;;;;;1.31;95.38;94813.13;5027993;28;20037;-73
2021/01/31 05:24:18;;;;;;;35.30;17.95;;;;;;;1.33;94.84;94806.75;5021954;28;20064;-73
2021/01/31 05:26:52;;;;;;;31.90;17.48;;;;;;;1.30;94.63;94807.16;5006025;28;20061;-73
2021/01/31 05:29:22;;;;;;;34.03;17.65;;;;;;;1.29;94.79;94802.19;5021166;28;20050;-73
2021/01/31 05:31:57;;;;;;;35.90;17.63;;;;;;;1.29;94.82;94805.56;5020762;28;20050;-74
2021/01/31 05:34:46;;;;;;;36.33;18.17;;;;;;;1.31;94.84;94810.53;5028624;28;20037;-73
2021/01/31 05:37:15;;;;;;;39.30;19.17;;;;;;;1.29;94.61;94808.16;5014643;28;20049;-74
2021/01/31 05:40:03;;;;;;;31.90;17.52;;;;;;;1.25;94.59;94801.78;5025663;28;20041;-73
2021/01/31 05:42:40;;;;;;;34.47;17.42;;;;;;;1.29;95.20;94799.63;5028186;28;20063;-73
2021/01/31 05:45:28;;;;;;;39.08;18.17;;;;;;;1.25;94.55;94798.44;5025939;28;20429;-73
2021/01/31 05:47:55;;;;;;;33.78;17.52;;;;;;;1.19;94.68;94798.22;5028557;28;20485;-73
2021/01/31 05:50:36;;;;;;;35.90;19.15;;;;;;;1.21;95.03;94803.19;5030805;28;20482;-73
2021/01/31 05:53:26;;;;;;;39.83;18.90;;;;;;;1.27;95.18;94796.44;5016276;28;20477;-73
2021/01/31 05:56:11;;;;;;;37.40;18.75;;;;;;;1.27;95.05;94799.81;5010947;28;20072;-73
2021/01/31 05:58:38;;;;;;;36.30;18.00;;;;;;;1.29;94.92;94802.19;5009811;28;20463;-73
2021/01/31 06:01:13;;;;;;;34.08;18.83;;;;;;;1.34;95.21;94798.00;5027262;28;20049;-73
2021/01/31 06:03:40;;;;;;;30.02;16.88;;;;;;;1.41;95.20;94803.97;5029278;28;20042;-73
2021/01/31 06:06:15;;;;;;;33.20;17.15;;;;;;;1.48;95.17;94816.09;5030451;28;20049;-73
2021/01/31 06:08:45;;;;;;;35.83;18.48;;;;;;;1.53;95.16;94821.44;5012589;28;20056;-73
2021/01/31 06:11:30;;;;;;;31.23;17.90;;;;;;;1.58;94.88;94832.75;5019752;28;20489;-73
2021/01/31 06:14:15;;;;;;;32.67;17.00;;;;;;;1.63;94.82;94832.16;5021991;28;20040;-73
2021/01/31 06:16:43;;;;;;;30.52;17.35;;;;;;;1.65;94.51;94829.38;5009081;28;20043;-74
2021/01/31 06:19:28;;;;;;;29.48;17.35;;;;;;;1.68;94.69;94844.44;5026413;28;20042;-73
2021/01/31 06:21:54;;;;;;;36.10;19.38;;;;;;;1.68;94.58;94841.88;5025170;28;20520;-73
2021/01/31 06:24:26;;;;;;;30.63;17.52;;;;;;;1.65;94.59;94832.75;5019984;28;20046;-74
2021/01/31 06:26:58;;;;;;;32.55;17.38;;;;;;;1.65;94.38;94839.69;5023743;28;20052;-73
2021/01/31 06:29:43;;;;;;;29.63;16.65;;;;;;;1.63;94.18;94835.50;5022259;28;20063;-73
2021/01/31 06:32:13;;;;;;;31.67;16.60;;;;;;;1.60;94.32;94837.72;5017164;28;20052;-73
2021/01/31 06:34:46;;;;;;;35.28;18.58;;;;;;;1.57;94.31;94835.53;5024540;28;20044;-73
2021/01/31 06:37:20;;;;;;;38.15;19.00;;;;;;;1.55;94.38;94842.69;5023333;28;20030;-73
2021/01/31 06:40:14;;;;;;;36.70;20.30;;;;;;;1.56;94.29;94852.03;5029414;28;20073;-74
2021/01/31 06:42:55;;;;;;;42.92;22.15;;;;;;;1.53;94.39;94839.50;5028842;28;20064;-73
2021/01/31 06:45:30;;;;;;;41.90;21.10;;;;;;;1.50;94.49;94850.25;5023406;28;20038;-73
2021/01/31 06:48:01;;;;;;;43.33;20.75;;;;;;;1.48;94.57;94853.03;5027879;28;20397;-73
2021/01/31 06:50:51;;;;;;;44.17;21.42;;;;;;;1.44;94.55;94853.63;5022958;28;20041;-73
2021/01/31 06:53:26;;;;;;;48.90;23.77;;;;;;;1.41;94.59;94853.03;5019216;28;20489;-73
2021/01/31 06:56:01;;;;;;;44.10;20.83;;;;;;;1.40;94.86;94850.66;5013901;28;20041;-73
2021/01/31 06:58:58;;;;;;;46.78;22.55;;;;;;;1.40;94.94;94858.41;5029679;28;20387;-73
2021/01/31 07:01:40;;;;;;;44.70;21.98;;;;;;;1.45;95.07;94863.78;5026148;28;20486;-73
2021/01/31 07:04:36;;;;;;;46.50;21.45;;;;;;;1.47;94.81;94866.13;5024664;28;20042;-73
2021/01/31 07:07:17;;;;;;;43.22;20.40;;;;;;;1.47;94.82;94860.97;5009606;28;20029;-73
2021/01/31 07:10:11;;;;;;;47.25;22.27;;;;;;;1.49;95.01;94867.56;5011260;28;20044;-73
2021/01/31 07:12:57;;;;;;;47.03;21.43;;;;;;;1.47;94.60;94879.06;5017338;28;20041;-73
2021/01/31 07:15:26;;;;;;;47.30;22.83;;;;;;;1.44;94.63;94880.25;5009329;28;20280;-73
2021/01/31 07:18:01;;;;;;;45.92;21.58;;;;;;;1.44;94.67;94888.00;5025460;28;20401;-73
2021/01/31 07:20:34;;;;;;;42.92;21.80;;;;;;;1.41;94.78;94889.19;5023720;28;20042;-73
2021/01/31 07:23:24;;;;;;;43.60;20.50;;;;;;;1.41;94.72;94889.19;5021840;28;20046;-73
2021/01/31 07:26:25;;;;;;;44.88;21.15;;;;;;;1.42;94.85;94892.56;5017662;28;20041;-73
2021/01/31 07:28:56;;;;;;;45.00;21.02;;;;;;;1.36;94.67;94894.16;5024212;28;20402;-73
2021/01/31 07:31:49;;;;;;;45.35;20.98;;;;;;;1.37;94.79;94900.91;5029300;28;20064;-74
2021/01/31 07:34:28;;;;;;;44.22;20.70;;;;;;;1.35;94.71;94905.50;5022826;28;20061;-73
2021/01/31 07:37:05;;;;;;;40.30;19.80;;;;;;;1.38;94.82;94904.28;5024194;28;20065;-73
2021/01/31 07:39:49;;;;;;;49.08;22.52;;;;;;;1.40;94.89;94903.09;5030523;28;20038;-73
2021/01/31 07:42:36;;;;;;;40.53;19.75;;;;;;;1.41;94.71;94902.13;5026647;28;20045;-73
2021/01/31 07:45:14;;;;;;;42.05;19.77;;;;;;;1.44;94.73;94913.84;5019899;28;20041;-73
2021/01/31 07:47:41;;;;;;;42.72;20.38;;;;;;;1.47;94.89;94910.88;5028297;28;20490;-73
2021/01/31 07:50:07;;;;;;;43.55;20.67;;;;;;;1.52;94.88;94907.69;5023086;28;20049;-73
2021/01/31 07:52:52;;;;;;;39.85;20.67;;;;;;;1.58;94.59;94905.09;5022490;28;20053;-74
2021/01/31 07:55:27;;;;;;;38.53;19.23;;;;;;;1.58;94.17;94907.69;5024534;28;20352;-73
2021/01/31 07:58:29;;;;;;;38.50;19.20;;;;;;;1.58;94.24;94904.31;5022578;28;20033;-73
2021/01/31 08:00:56;;;;;;;32.97;16.75;;;;;;;1.60;94.33;94913.44;5014938;28;20048;-73
2021/01/31 08:03:31;;;;;;;34.55;17.73;;;;;;;1.62;94.08;94905.50;5020737;28;20505;-74
2021/01/31 08:05:59;;;;;;;37.58;18.52;;;;;;;1.65;93.94;94912.03;5023862;28;20042;-73
2021/01/31 08:08:40;;;;;;;31.90;16.48;;;;;;;1.65;93.73;94918.00;5023395;28;20040;-73
2021/01/31 08:11:10;;;;;;;30.40;15.00;;;;;;;1.61;93.59;94920.19;5028579;28;20044;-74
2021/01/31 08:13:39;;;;;;;29.90;14.90;;;;;;;1.58;93.37;94918.00;5026162;28;20040;-73
2021/01/31 08:16:42;;;;;;;24.98;14.05;;;;;;;1.60;93.38;94921.19;5018712;28;20046;-74
2021/01/31 08:19:11;;;;;;;25.05;13.52;;;;;;;1.60;93.54;94926.34;5016632;28;20049;-74
2021/01/31 08:21:56;;;;;;;23.48;13.38;;;;;;;1.62;93.49;94929.53;5023048;28;20060;-73
2021/01/31 08:25:02;;;;;;;27.88;14.52;;;;;;;1.63;93.14;94920.78;5029284;28;20046;-73
2021/01/31 08:27:37;;;;;;;24.75;13.13;;;;;;;1.67;93.38;94931.50;5015376;28;20050;-74
2021/01/31 08:30:18;;;;;;;26.10;14.25;;;;;;;1.72;93.50;94938.66;5026592;28;20501;-73
2021/01/31 08:33:02;;;;;;;29.77;15.18;;;;;;;1.70;93.41;94935.47;5027794;28;20045;-73
2021/01/31 08:35:36;;;;;;;29.35;15.48;;;;;;;1.67;93.46;94934.09;5016060;28;20410;-73
2021/01/31 08:38:32;;;;;;;32.70;16.95;;;;;;;1.64;92.94;94934.50;5025214;28;20046;-73
2021/01/31 08:40:59;;;;;;;31.75;16.35;;;;;;;1.62;93.19;94939.88;5021289;28;20056;-74
2021/01/31 08:43:49;;;;;;;29.00;15.30;;;;;;;1.60;93.00;94941.84;5018906;28;20061;-73
2021/01/31 08:46:23;;;;;;;32.75;16.63;;;;;;;1.61;93.40;94947.81;5022093;28;20050;-73
2021/01/31 08:48:52;;;;;;;30.98;16.10;;;;;;;1.63;93.50;94941.44;5029607;28;20037;-74
2021/01/31 08:51:36;;;;;;;37.80;18.52;;;;;;;1.65;93.52;94949.00;5021484;28;20048;-73
2021/01/31 08:54:02;;;;;;;;;;;;;;;1.65;93.25;94950.81;5021382;28;20429;-73
2021/01/31 08:56:53;;;;;;;35.50;17.40;;;;;;;1.63;93.33;94946.63;5018415;28;19913;-74
2021/01/31 08:59:33;;;;;;;30.23;16.25;;;;;;;1.63;93.05;94946.63;5021412;28;20049;-73
2021/01/31 09:02:18;;;;;;;31.73;17.30;;;;;;;1.63;93.45;94948.41;5021394;28;20116;-73
2021/01/31 09:04:46;;;;;;;35.28;16.65;;;;;;;1.63;93.49;94944.03;5014970;28;20056;-73
2021/01/31 09:07:29;;;;;;;36.25;17.65;;;;;;;1.66;93.72;94944.63;5021516;28;20390;-73
2021/01/31 09:10:00;;;;;;;37.65;18.88;;;;;;;1.67;93.72;94943.66;5026429;28;20060;-73
2021/01/31 09:12:27;;;;;;;37.90;19.00;;;;;;;1.68;93.77;94942.63;5022173;28;20041;-74
2021/01/31 09:15:13;;;;;;;35.72;18.42;;;;;;;1.70;93.63;94949.22;5028351;28;20053;-73
2021/01/31 09:17:39;;;;;;;34.33;17.65;;;;;;;1.71;93.77;94953.38;5025599;28;20046;-73
2021/01/31 09:20:10;;;;;;;36.00;17.85;;;;;;;1.74;94.01;94945.25;5026117;28;20053;-73
2021/01/31 09:22:42;;;;;;;36.08;18.85;;;;;;;1.83;94.27;94951.00;5011738;28;20044;-73
2021/01/31 09:25:11;;;;;;;34.55;18.27;;;;;;;1.86;93.96;94954.97;5020698;28;21238;-74
2021/01/31 09:27:50;;;;;;;32.78;17.95;;;;;;;1.90;93.83;94951.00;5028472;28;20383;-73
2021/01/31 09:30:19;;;;;;;36.38;18.27;;;;;;;1.92;93.22;94967.88;5014980;28;20045;-73
2021/01/31 09:32:51;;;;;;;34.13;18.45;;;;;;;1.96;93.61;94966.50;5026135;28;20046;-73
2021/01/31 09:35:28;;;;;;;37.17;18.85;;;;;;;1.99;93.50;94962.72;5024878;28;20038;-73
2021/01/31 09:38:11;;;;;;;36.10;18.77;;;;;;;2.03;93.65;94969.84;5027187;28;20050;-73
2021/01/31 09:40:38;;;;;;;35.38;18.63;;;;;;;2.08;93.61;94965.88;5033385;28;20507;-73
2021/01/31 09:43:08;;;;;;;37.50;20.48;;;;;;;2.13;93.81;94971.25;5027013;28;20042;-73
2021/01/31 09:45:41;;;;;;;33.83;17.77;;;;;;;2.15;93.47;94971.84;5028990;28;20060;-74
2021/01/31 09:48:11;;;;;;;32.15;18.33;;;;;;;2.19;93.39;94970.44;5022554;28;20037;-73
2021/01/31 09:50:45;;;;;;;34.13;18.23;;;;;;;2.22;93.39;94977.78;5025245;28;20038;-73
2021/01/31 09:53:39;;;;;;;35.67;17.80;;;;;;;2.25;93.24;94980.00;5025522;28;20042;-74
2021/01/31 09:56:11;;;;;;;34.10;18.98;;;;;;;2.24;93.29;94979.19;5025449;28;20483;-75
2021/01/31 09:58:43;;;;;;;35.42;19.30;;;;;;;2.23;93.15;94982.78;5028504;28;20042;-74
2021/01/31 10:01:27;;;;;;;30.83;17.17;;;;;;;2.21;93.09;94978.81;5020134;28;20080;-73
2021/01/31 10:04:02;;;;;;;30.48;17.60;;;;;;;2.20;93.25;94984.97;5018827;28;20402;-73
2021/01/31 10:06:41;;;;;;;30.98;16.60;;;;;;;2.23;93.08;94977.59;5019804;28;20480;-73
2021/01/31 10:09:07;;;;;;;28.58;15.90;;;;;;;2.25;93.05;94972.22;5024583;28;20042;-73
2021/01/31 10:11:38;;;;;;;28.38;16.60;;;;;;;2.28;92.90;94964.06;5014584;28;20044;-73
2021/01/31 10:14:07;;;;;;;27.05;16.63;;;;;;;2.35;93.21;94970.03;5025237;28;20052;-73
2021/01/31 10:16:37;;;;;;;28.00;16.30;;;;;;;2.39;92.26;94962.63;5021584;28;20053;-74
2021/01/31 10:19:22;;;;;;;27.63;15.45;;;;;;;2.27;90.35;94972.00;5025776;28;20046;-73
2021/01/31 10:21:56;;;;;;;22.92;13.93;;;;;;;2.17;91.10;94970.66;5012636;28;20049;-73
2021/01/31 10:24:26;;;;;;;24.85;14.70;;;;;;;2.14;91.58;94954.72;5026066;28;20061;-73
2021/01/31 10:27:20;;;;;;;25.10;14.52;;;;;;;2.14;91.66;94952.97;5022501;28;20034;-73
2021/01/31 10:29:47;;;;;;;23.40;14.02;;;;;;;2.15;92.13;94948.56;5021472;28;20076;-73
2021/01/31 10:32:39;;;;;;;25.00;15.15;;;;;;;2.25;92.78;94943.78;5006581;28;20037;-73
2021/01/31 10:35:38;;;;;;;24.60;15.27;;;;;;;2.38;92.49;94948.13;5026055;28;20049;-73
2021/01/31 10:38:31;;;;;;;25.10;14.57;;;;;;;2.43;92.38;94950.88;5005491;28;20049;-73
2021/01/31 10:40:59;;;;;;;27.70;15.82;;;;;;;2.47;92.35;94948.69;5032383;28;20045;-73
2021/01/31 10:43:27;;;;;;;26.60;15.00;;;;;;;2.51;92.46;94940.31;5027689;28;20060;-73
2021/01/31 10:45:53;;;;;;;28.35;16.23;;;;;;;2.53;92.13;94951.25;5026931;28;20045;-74
2021/01/31 10:48:20;;;;;;;23.60;14.52;;;;;;;2.53;92.23;94955.63;5021316;28;20033;-73
2021/01/31 10:50:46;;;;;;;23.52;14.63;;;;;;;2.58;92.33;94956.63;5024138;28;20053;-73
2021/01/31 10:53:12;;;;;;;26.67;16.42;;;;;;;2.64;92.58;94949.81;5018125;28;20049;-74
2021/01/31 10:55:41;;;;;;;28.50;17.38;;;;;;;2.71;92.55;94940.25;5028083;28;20052;-73
2021/01/31 10:58:08;;;;;;;28.60;16.15;;;;;;;2.74;92.38;94937.25;5022151;28;20030;-73
2021/01/31 11:00:34;;;;;;;29.77;16.52;;;;;;;2.75;92.35;94938.03;5021676;28;20054;-75
2021/01/31 11:03:00;;;;;;;24.77;14.98;;;;;;;2.80;92.66;94941.59;5032834;28;20056;-74
2021/01/31 11:05:26;;;;;;;26.52;15.73;;;;;;;2.89;92.63;94955.09;5025993;28;20053;-73
2021/01/31 11:07:53;;;;;;;25.45;15.82;;;;;;;2.98;92.24;94950.47;5025488;28;20406;-74
2021/01/31 11:10:20;;;;;;;26.45;15.77;;;;;;;3.03;92.05;94950.66;5027525;28;20049;-73
2021/01/31 11:12:46;;;;;;;23.73;15.20;;;;;;;3.07;92.03;94957.00;5022929;28;20034;-75
2021/01/31 11:15:14;;;;;;;28.50;17.00;;;;;;;3.11;91.87;94959.97;5026274;28;20524;-74
2021/01/31 11:17:40;;;;;;;26.80;16.27;;;;;;;3.15;92.13;94956.78;5018341;28;20048;-73
2021/01/31 11:20:08;;;;;;;29.67;16.60;;;;;;;3.17;91.80;94957.34;5025981;28;20049;-73
2021/01/31 11:22:35;;;;;;;26.88;16.13;;;;;;;3.20;91.55;94956.13;5027573;28;20030;-73
2021/01/31 11:25:03;;;;;;;29.00;16.35;;;;;;;3.20;91.11;94954.34;5024118;28;20046;-73
2021/01/31 11:27:30;;;;;;;27.25;15.98;;;;;;;3.17;91.13;94953.94;5024717;28;20068;-73
2021/01/31 11:29:57;;;;;;;23.67;14.82;;;;;;;3.18;91.48;94948.56;5026079;28;20497;-73
2021/01/31 11:32:23;;;;;;;29.23;16.33;;;;;;;3.20;91.25;94951.75;5019052;28;20056;-73
2021/01/31 11:34:50;;;;;;;27.73;16.77;;;;;;;3.20;91.53;94943.97;5025620;28;20053;-73
2021/01/31 11:37:16;;;;;;;27.63;15.43;;;;;;;3.19;91.55;94939.81;5019248;28;20042;-73
2021/01/31 11:39:42;;;;;;;30.10;18.95;;;;;;;3.20;91.51;94945.78;5021863;28;20049;-73
2021/01/31 11:42:09;;;;;;;29.50;18.35;;;;;;;3.21;91.60;94944.75;5026107;28;20486;-73
2021/01/31 11:44:35;;;;;;;28.77;17.17;;;;;;;3.21;91.60;94939.59;5025976;28;20041;-73
2021/01/31 11:47:02;;;;;;;26.35;15.55;;;;;;;3.25;91.61;94932.97;5020019;28;20470;-73
2021/01/31 11:49:28;;;;;;;27.77;16.67;;;;;;;3.24;90.79;94929.59;5024709;28;20061;-74
2021/01/31 11:51:54;;;;;;;26.55;14.80;;;;;;;3.23;90.64;94930.63;5030523;28;20053;-74
2021/01/31 11:54:21;;;;;;;30.35;16.17;;;;;;;3.20;90.46;94915.50;5015932;28;20040;-73
2021/01/31 11:56:47;;;;;;;31.90;17.08;;;;;;;3.14;90.55;94903.38;5023357;28;20076;-74
2021/01/31 11:59:13;;;;;;;34.72;18.80;;;;;;;3.01;90.07;94909.44;5001503;28;20029;-73